Terminal Aerodrome Forecast
Issued by NWS

Home | Current Version | Previous Version | Text Only | Print | Product List | Glossary On
Versions: 1 2 3 4 5 6 7 8 9 10 11 12 13 14 15 16
000
FTUS46 KMTR 042341
TAFSTS
TAF
KSTS 042341Z 0500/0524 19009KT P6SM VCSH SCT050 BKN100
     FM050300 17006KT P6SM FEW012 SCT120 BKN150
     FM050500 VRB03KT P6SM BKN011
     FM050800 VRB02KT 6SM BR OVC009
     FM051500 VRB04KT P6SM BKN012 OVC020
     FM051700 18003KT P6SM VCSH FEW012 SCT024 BKN100
     FM052100 18007KT P6SM VCSH SCT040 BKN080=

USA.gov is the U.S. government's official web portal to all federal, state and local government web resources and services.